Dois Vizinhos, Brazil
Current Conditions -  °F | °C
As of 12:00 AM on Saturday 25 Oct 2014 (Local Time) from SBCA Reporting Station
Clear Clear  
Wind Chill: 72°   Ceiling: Unl
Heat Index: 72°   Visibility: 6mi
Dew Point: 61°   Wind: 6mph
Humidity: 69%   Direction: 170°S
Pressure: 29.97"   Gusts: NA
Location:  25.73°S, 53.06°W
Report Text: SBCA 250200Z 17005KT CAVOK 22/16 Q1015
Loading
Personal Weather Stations






























Interactive Weather Map
Tropical Storm Tracking
New forecast layout! Learn more

10-Day Weather Forecast

Advertisements
Track Severe Weather on mobile